sensor_id;sensor_type;location;lat;lon;timestamp;P1;durP1;ratioP1;P2;durP2;ratioP2
5821;SDS011;2937;48.562;8.022;2022-09-09T00:00:15;4.20;;;1.90;;
5821;SDS011;2937;48.562;8.022;2022-09-09T00:05:12;5.57;;;1.77;;
5821;SDS011;2937;48.562;8.022;2022-09-09T00:10:09;4.30;;;2.00;;
5821;SDS011;2937;48.562;8.022;2022-09-09T00:15:10;4.10;;;2.07;;
5821;SDS011;2937;48.562;8.022;2022-09-09T00:20:05;4.83;;;2.20;;
5821;SDS011;2937;48.562;8.022;2022-09-09T00:25:08;3.37;;;1.80;;
5821;SDS011;2937;48.562;8.022;2022-09-09T00:30:12;9.30;;;2.77;;
5821;SDS011;2937;48.562;8.022;2022-09-09T00:35:12;5.77;;;2.40;;
5821;SDS011;2937;48.562;8.022;2022-09-09T00:40:11;7.07;;;2.80;;
5821;SDS011;2937;48.562;8.022;2022-09-09T00:45:15;7.30;;;2.43;;
5821;SDS011;2937;48.562;8.022;2022-09-09T00:50:15;5.50;;;2.47;;
5821;SDS011;2937;48.562;8.022;2022-09-09T00:55:14;4.40;;;2.50;;
5821;SDS011;2937;48.562;8.022;2022-09-09T01:00:17;9.53;;;2.73;;
5821;SDS011;2937;48.562;8.022;2022-09-09T01:05:11;4.77;;;1.83;;
5821;SDS011;2937;48.562;8.022;2022-09-09T01:10:07;6.33;;;2.10;;
5821;SDS011;2937;48.562;8.022;2022-09-09T01:15:08;4.00;;;2.30;;
5821;SDS011;2937;48.562;8.022;2022-09-09T01:20:10;2.87;;;1.97;;
5821;SDS011;2937;48.562;8.022;2022-09-09T01:25:22;3.50;;;2.20;;
5821;SDS011;2937;48.562;8.022;2022-09-09T01:30:28;6.20;;;3.43;;
5821;SDS011;2937;48.562;8.022;2022-09-09T01:35:26;6.27;;;2.13;;
5821;SDS011;2937;48.562;8.022;2022-09-09T01:40:24;4.60;;;2.20;;
5821;SDS011;2937;48.562;8.022;2022-09-09T01:45:18;3.60;;;2.30;;
5821;SDS011;2937;48.562;8.022;2022-09-09T01:50:13;5.37;;;2.40;;
5821;SDS011;2937;48.562;8.022;2022-09-09T01:55:07;8.17;;;2.33;;
5821;SDS011;2937;48.562;8.022;2022-09-09T02:00:04;5.97;;;2.63;;
5821;SDS011;2937;48.562;8.022;2022-09-09T02:05:09;4.20;;;2.40;;
5821;SDS011;2937;48.562;8.022;2022-09-09T02:10:08;4.00;;;2.10;;
5821;SDS011;2937;48.562;8.022;2022-09-09T02:15:10;4.57;;;2.33;;
5821;SDS011;2937;48.562;8.022;2022-09-09T02:20:12;6.83;;;2.50;;
5821;SDS011;2937;48.562;8.022;2022-09-09T02:25:13;5.90;;;2.57;;
5821;SDS011;2937;48.562;8.022;2022-09-09T02:30:08;6.00;;;2.50;;
5821;SDS011;2937;48.562;8.022;2022-09-09T02:35:07;3.13;;;2.10;;
5821;SDS011;2937;48.562;8.022;2022-09-09T02:40:03;3.40;;;1.60;;
5821;SDS011;2937;48.562;8.022;2022-09-09T02:44:59;2.90;;;1.70;;
5821;SDS011;2937;48.562;8.022;2022-09-09T02:49:55;4.43;;;1.63;;
5821;SDS011;2937;48.562;8.022;2022-09-09T02:54:52;6.07;;;1.90;;
5821;SDS011;2937;48.562;8.022;2022-09-09T02:59:50;2.97;;;1.93;;
5821;SDS011;2937;48.562;8.022;2022-09-09T03:04:45;6.60;;;2.00;;
5821;SDS011;2937;48.562;8.022;2022-09-09T03:09:42;3.60;;;1.50;;
5821;SDS011;2937;48.562;8.022;2022-09-09T03:14:36;4.63;;;1.70;;
5821;SDS011;2937;48.562;8.022;2022-09-09T03:19:29;4.17;;;1.80;;
5821;SDS011;2937;48.562;8.022;2022-09-09T03:24:25;2.40;;;1.50;;
5821;SDS011;2937;48.562;8.022;2022-09-09T03:29:18;4.03;;;1.73;;
5821;SDS011;2937;48.562;8.022;2022-09-09T03:34:11;3.90;;;1.73;;
5821;SDS011;2937;48.562;8.022;2022-09-09T03:39:04;4.23;;;1.90;;
5821;SDS011;2937;48.562;8.022;2022-09-09T03:43:58;3.63;;;2.00;;
5821;SDS011;2937;48.562;8.022;2022-09-09T03:48:54;3.17;;;1.80;;
5821;SDS011;2937;48.562;8.022;2022-09-09T03:53:48;5.27;;;2.00;;
5821;SDS011;2937;48.562;8.022;2022-09-09T03:58:41;4.50;;;2.37;;
5821;SDS011;2937;48.562;8.022;2022-09-09T04:03:37;3.97;;;2.00;;
5821;SDS011;2937;48.562;8.022;2022-09-09T04:08:30;5.30;;;2.10;;
5821;SDS011;2937;48.562;8.022;2022-09-09T04:13:24;6.63;;;2.60;;
5821;SDS011;2937;48.562;8.022;2022-09-09T04:18:18;4.83;;;3.10;;
5821;SDS011;2937;48.562;8.022;2022-09-09T04:23:13;5.20;;;2.47;;
5821;SDS011;2937;48.562;8.022;2022-09-09T04:28:06;4.20;;;2.10;;
5821;SDS011;2937;48.562;8.022;2022-09-09T04:32:59;4.73;;;2.37;;
5821;SDS011;2937;48.562;8.022;2022-09-09T04:37:52;6.60;;;2.47;;
5821;SDS011;2937;48.562;8.022;2022-09-09T04:42:46;2.80;;;1.80;;
5821;SDS011;2937;48.562;8.022;2022-09-09T04:47:39;4.37;;;2.13;;
5821;SDS011;2937;48.562;8.022;2022-09-09T04:52:33;3.47;;;2.20;;
5821;SDS011;2937;48.562;8.022;2022-09-09T04:57:26;5.40;;;2.23;;
5821;SDS011;2937;48.562;8.022;2022-09-09T05:02:21;2.60;;;2.03;;
5821;SDS011;2937;48.562;8.022;2022-09-09T05:07:14;2.20;;;1.90;;
5821;SDS011;2937;48.562;8.022;2022-09-09T05:12:08;4.10;;;2.07;;
5821;SDS011;2937;48.562;8.022;2022-09-09T05:17:05;5.20;;;2.33;;
5821;SDS011;2937;48.562;8.022;2022-09-09T05:22:02;6.93;;;2.33;;
5821;SDS011;2937;48.562;8.022;2022-09-09T05:27:03;5.30;;;2.10;;
5821;SDS011;2937;48.562;8.022;2022-09-09T05:31:57;7.53;;;2.33;;
5821;SDS011;2937;48.562;8.022;2022-09-09T05:36:50;2.53;;;2.00;;
5821;SDS011;2937;48.562;8.022;2022-09-09T05:41:46;4.63;;;2.10;;
5821;SDS011;2937;48.562;8.022;2022-09-09T05:46:39;3.30;;;2.27;;
5821;SDS011;2937;48.562;8.022;2022-09-09T05:51:32;5.97;;;2.50;;
5821;SDS011;2937;48.562;8.022;2022-09-09T05:56:34;4.90;;;2.60;;
5821;SDS011;2937;48.562;8.022;2022-09-09T06:01:29;5.53;;;3.00;;
5821;SDS011;2937;48.562;8.022;2022-09-09T06:06:24;4.90;;;2.43;;
5821;SDS011;2937;48.562;8.022;2022-09-09T06:11:20;5.63;;;2.43;;
5821;SDS011;2937;48.562;8.022;2022-09-09T06:16:14;4.37;;;2.20;;
5821;SDS011;2937;48.562;8.022;2022-09-09T06:21:11;3.93;;;2.00;;
5821;SDS011;2937;48.562;8.022;2022-09-09T06:26:06;6.10;;;2.30;;
5821;SDS011;2937;48.562;8.022;2022-09-09T06:30:59;11.00;;;2.20;;
5821;SDS011;2937;48.562;8.022;2022-09-09T06:35:53;7.87;;;2.20;;
5821;SDS011;2937;48.562;8.022;2022-09-09T06:40:53;5.20;;;2.40;;
5821;SDS011;2937;48.562;8.022;2022-09-09T06:45:52;4.43;;;2.20;;
5821;SDS011;2937;48.562;8.022;2022-09-09T06:50:45;6.87;;;1.93;;
5821;SDS011;2937;48.562;8.022;2022-09-09T06:55:39;5.67;;;2.10;;
5821;SDS011;2937;48.562;8.022;2022-09-09T07:00:34;6.37;;;2.50;;
5821;SDS011;2937;48.562;8.022;2022-09-09T07:05:29;5.30;;;2.50;;
5821;SDS011;2937;48.562;8.022;2022-09-09T07:10:22;5.10;;;2.30;;
5821;SDS011;2937;48.562;8.022;2022-09-09T07:15:14;3.53;;;2.20;;
5821;SDS011;2937;48.562;8.022;2022-09-09T07:20:10;4.57;;;2.10;;
5821;SDS011;2937;48.562;8.022;2022-09-09T07:25:04;5.30;;;1.90;;
5821;SDS011;2937;48.562;8.022;2022-09-09T07:29:57;4.40;;;2.00;;
5821;SDS011;2937;48.562;8.022;2022-09-09T07:34:50;5.60;;;1.93;;
5821;SDS011;2937;48.562;8.022;2022-09-09T07:39:44;3.40;;;1.87;;
5821;SDS011;2937;48.562;8.022;2022-09-09T07:44:37;5.63;;;2.03;;
5821;SDS011;2937;48.562;8.022;2022-09-09T07:49:35;5.53;;;2.20;;
5821;SDS011;2937;48.562;8.022;2022-09-09T07:54:30;7.87;;;2.00;;
5821;SDS011;2937;48.562;8.022;2022-09-09T07:59:27;3.67;;;1.87;;
5821;SDS011;2937;48.562;8.022;2022-09-09T08:04:22;5.43;;;2.03;;
5821;SDS011;2937;48.562;8.022;2022-09-09T08:09:16;4.80;;;1.97;;
5821;SDS011;2937;48.562;8.022;2022-09-09T08:14:11;4.70;;;1.83;;
5821;SDS011;2937;48.562;8.022;2022-09-09T08:19:06;7.93;;;1.87;;
5821;SDS011;2937;48.562;8.022;2022-09-09T08:23:59;8.10;;;1.90;;
5821;SDS011;2937;48.562;8.022;2022-09-09T08:28:53;7.47;;;2.17;;
5821;SDS011;2937;48.562;8.022;2022-09-09T08:33:48;5.67;;;1.90;;
5821;SDS011;2937;48.562;8.022;2022-09-09T08:38:48;4.10;;;1.60;;
5821;SDS011;2937;48.562;8.022;2022-09-09T08:43:42;2.83;;;1.53;;
5821;SDS011;2937;48.562;8.022;2022-09-09T08:48:40;3.53;;;1.70;;
5821;SDS011;2937;48.562;8.022;2022-09-09T08:53:38;7.97;;;2.20;;
5821;SDS011;2937;48.562;8.022;2022-09-09T08:58:33;4.57;;;1.70;;
5821;SDS011;2937;48.562;8.022;2022-09-09T09:03:33;4.40;;;2.10;;
5821;SDS011;2937;48.562;8.022;2022-09-09T09:08:29;3.97;;;1.87;;
5821;SDS011;2937;48.562;8.022;2022-09-09T09:13:26;3.03;;;1.70;;
5821;SDS011;2937;48.562;8.022;2022-09-09T09:18:25;3.40;;;2.00;;
5821;SDS011;2937;48.562;8.022;2022-09-09T09:23:20;4.63;;;2.00;;
5821;SDS011;2937;48.562;8.022;2022-09-09T09:28:15;4.57;;;1.97;;
5821;SDS011;2937;48.562;8.022;2022-09-09T09:33:14;5.10;;;1.90;;
5821;SDS011;2937;48.562;8.022;2022-09-09T09:43:28;5.53;;;1.70;;
5821;SDS011;2937;48.562;8.022;2022-09-09T09:48:24;6.47;;;1.87;;
5821;SDS011;2937;48.562;8.022;2022-09-09T09:53:18;6.13;;;1.97;;
5821;SDS011;2937;48.562;8.022;2022-09-09T09:58:14;4.80;;;1.60;;
5821;SDS011;2937;48.562;8.022;2022-09-09T10:03:14;3.67;;;1.80;;
5821;SDS011;2937;48.562;8.022;2022-09-09T10:08:14;6.77;;;2.00;;
5821;SDS011;2937;48.562;8.022;2022-09-09T10:13:09;5.77;;;1.73;;
5821;SDS011;2937;48.562;8.022;2022-09-09T10:18:06;3.67;;;1.70;;
5821;SDS011;2937;48.562;8.022;2022-09-09T10:23:09;2.90;;;1.30;;
5821;SDS011;2937;48.562;8.022;2022-09-09T10:28:10;2.73;;;1.43;;
5821;SDS011;2937;48.562;8.022;2022-09-09T10:33:08;2.70;;;1.40;;
5821;SDS011;2937;48.562;8.022;2022-09-09T10:38:10;3.23;;;1.63;;
5821;SDS011;2937;48.562;8.022;2022-09-09T10:43:09;4.10;;;1.30;;
5821;SDS011;2937;48.562;8.022;2022-09-09T10:48:07;6.80;;;1.73;;
5821;SDS011;2937;48.562;8.022;2022-09-09T10:53:02;7.77;;;2.07;;
5821;SDS011;2937;48.562;8.022;2022-09-09T10:58:00;2.37;;;1.27;;
5821;SDS011;2937;48.562;8.022;2022-09-09T11:02:56;17.17;;;1.57;;
5821;SDS011;2937;48.562;8.022;2022-09-09T11:07:49;3.10;;;1.60;;
5821;SDS011;2937;48.562;8.022;2022-09-09T11:12:44;25.03;;;2.30;;
5821;SDS011;2937;48.562;8.022;2022-09-09T11:17:41;6.03;;;1.70;;
5821;SDS011;2937;48.562;8.022;2022-09-09T11:22:35;4.50;;;1.50;;
5821;SDS011;2937;48.562;8.022;2022-09-09T11:27:35;3.17;;;1.23;;
5821;SDS011;2937;48.562;8.022;2022-09-09T11:32:34;2.80;;;1.20;;
5821;SDS011;2937;48.562;8.022;2022-09-09T11:37:37;2.67;;;1.23;;
5821;SDS011;2937;48.562;8.022;2022-09-09T11:42:32;4.27;;;1.40;;
5821;SDS011;2937;48.562;8.022;2022-09-09T11:47:26;2.50;;;1.30;;
5821;SDS011;2937;48.562;8.022;2022-09-09T11:52:21;3.10;;;1.40;;
5821;SDS011;2937;48.562;8.022;2022-09-09T11:57:21;3.80;;;1.40;;
5821;SDS011;2937;48.562;8.022;2022-09-09T12:02:17;2.80;;;1.20;;
5821;SDS011;2937;48.562;8.022;2022-09-09T12:07:22;3.70;;;1.20;;
5821;SDS011;2937;48.562;8.022;2022-09-09T12:12:25;2.60;;;1.00;;
5821;SDS011;2937;48.562;8.022;2022-09-09T12:17:18;2.80;;;1.30;;
5821;SDS011;2937;48.562;8.022;2022-09-09T12:22:14;4.07;;;1.30;;
5821;SDS011;2937;48.562;8.022;2022-09-09T12:27:11;4.03;;;1.40;;
5821;SDS011;2937;48.562;8.022;2022-09-09T12:32:08;3.90;;;1.50;;
5821;SDS011;2937;48.562;8.022;2022-09-09T12:37:04;3.03;;;1.50;;
5821;SDS011;2937;48.562;8.022;2022-09-09T12:41:58;2.33;;;1.20;;
5821;SDS011;2937;48.562;8.022;2022-09-09T12:46:50;4.20;;;1.50;;
5821;SDS011;2937;48.562;8.022;2022-09-09T12:51:45;3.53;;;1.67;;
5821;SDS011;2937;48.562;8.022;2022-09-09T12:56:37;2.60;;;1.30;;
5821;SDS011;2937;48.562;8.022;2022-09-09T13:01:31;3.37;;;1.40;;
5821;SDS011;2937;48.562;8.022;2022-09-09T13:06:25;5.13;;;1.83;;
5821;SDS011;2937;48.562;8.022;2022-09-09T13:11:21;7.03;;;2.00;;
5821;SDS011;2937;48.562;8.022;2022-09-09T13:16:18;7.77;;;1.70;;
5821;SDS011;2937;48.562;8.022;2022-09-09T13:21:11;2.77;;;1.60;;
5821;SDS011;2937;48.562;8.022;2022-09-09T13:26:05;3.73;;;1.67;;
5821;SDS011;2937;48.562;8.022;2022-09-09T13:31:00;4.43;;;1.60;;
5821;SDS011;2937;48.562;8.022;2022-09-09T13:35:55;4.13;;;1.50;;
5821;SDS011;2937;48.562;8.022;2022-09-09T13:40:54;4.30;;;1.50;;
5821;SDS011;2937;48.562;8.022;2022-09-09T13:45:52;3.70;;;1.20;;
5821;SDS011;2937;48.562;8.022;2022-09-09T13:50:54;4.97;;;1.60;;
5821;SDS011;2937;48.562;8.022;2022-09-09T13:55:47;2.97;;;1.20;;
5821;SDS011;2937;48.562;8.022;2022-09-09T14:00:43;2.83;;;1.30;;
5821;SDS011;2937;48.562;8.022;2022-09-09T14:05:36;4.40;;;1.30;;
5821;SDS011;2937;48.562;8.022;2022-09-09T14:10:30;2.80;;;1.17;;
5821;SDS011;2937;48.562;8.022;2022-09-09T14:15:23;3.73;;;1.20;;
5821;SDS011;2937;48.562;8.022;2022-09-09T14:20:16;2.57;;;1.20;;
5821;SDS011;2937;48.562;8.022;2022-09-09T14:25:10;2.00;;;1.30;;
5821;SDS011;2937;48.562;8.022;2022-09-09T14:30:06;3.47;;;1.30;;
5821;SDS011;2937;48.562;8.022;2022-09-09T14:34:59;3.67;;;1.10;;
5821;SDS011;2937;48.562;8.022;2022-09-09T14:39:51;4.93;;;1.40;;
5821;SDS011;2937;48.562;8.022;2022-09-09T14:44:45;5.10;;;1.50;;
5821;SDS011;2937;48.562;8.022;2022-09-09T14:49:40;3.63;;;1.47;;
5821;SDS011;2937;48.562;8.022;2022-09-09T14:54:36;3.60;;;1.20;;
5821;SDS011;2937;48.562;8.022;2022-09-09T14:59:29;9.00;;;1.70;;
5821;SDS011;2937;48.562;8.022;2022-09-09T15:04:21;4.33;;;1.60;;
5821;SDS011;2937;48.562;8.022;2022-09-09T15:09:15;4.07;;;1.63;;
5821;SDS011;2937;48.562;8.022;2022-09-09T15:14:08;4.73;;;1.50;;
5821;SDS011;2937;48.562;8.022;2022-09-09T15:19:01;4.13;;;1.60;;
5821;SDS011;2937;48.562;8.022;2022-09-09T15:23:54;6.90;;;2.03;;
5821;SDS011;2937;48.562;8.022;2022-09-09T15:28:48;3.43;;;1.60;;
5821;SDS011;2937;48.562;8.022;2022-09-09T15:33:41;4.43;;;1.67;;
5821;SDS011;2937;48.562;8.022;2022-09-09T15:38:34;3.50;;;1.50;;
5821;SDS011;2937;48.562;8.022;2022-09-09T15:43:26;4.00;;;1.60;;
5821;SDS011;2937;48.562;8.022;2022-09-09T15:48:20;3.70;;;1.30;;
5821;SDS011;2937;48.562;8.022;2022-09-09T15:53:16;5.83;;;1.50;;
5821;SDS011;2937;48.562;8.022;2022-09-09T15:58:09;3.27;;;1.40;;
5821;SDS011;2937;48.562;8.022;2022-09-09T16:03:03;3.43;;;1.50;;
5821;SDS011;2937;48.562;8.022;2022-09-09T16:07:57;3.90;;;1.50;;
5821;SDS011;2937;48.562;8.022;2022-09-09T16:12:49;4.97;;;2.00;;
5821;SDS011;2937;48.562;8.022;2022-09-09T16:17:42;10.20;;;2.47;;
5821;SDS011;2937;48.562;8.022;2022-09-09T16:22:35;5.73;;;1.70;;
5821;SDS011;2937;48.562;8.022;2022-09-09T16:27:29;5.20;;;1.97;;
5821;SDS011;2937;48.562;8.022;2022-09-09T16:32:23;5.40;;;1.60;;
5821;SDS011;2937;48.562;8.022;2022-09-09T16:37:15;3.30;;;1.90;;
5821;SDS011;2937;48.562;8.022;2022-09-09T16:42:08;3.10;;;1.77;;
5821;SDS011;2937;48.562;8.022;2022-09-09T16:47:03;7.80;;;2.13;;
5821;SDS011;2937;48.562;8.022;2022-09-09T16:51:57;2.97;;;1.70;;
5821;SDS011;2937;48.562;8.022;2022-09-09T16:56:49;5.93;;;2.07;;
5821;SDS011;2937;48.562;8.022;2022-09-09T17:01:42;5.50;;;2.20;;
5821;SDS011;2937;48.562;8.022;2022-09-09T17:06:37;4.00;;;2.37;;
5821;SDS011;2937;48.562;8.022;2022-09-09T17:11:29;4.50;;;2.17;;
5821;SDS011;2937;48.562;8.022;2022-09-09T17:16:22;6.23;;;2.30;;
5821;SDS011;2937;48.562;8.022;2022-09-09T17:21:16;7.80;;;2.60;;
5821;SDS011;2937;48.562;8.022;2022-09-09T17:26:13;4.30;;;2.43;;
5821;SDS011;2937;48.562;8.022;2022-09-09T17:31:06;3.70;;;1.60;;
5821;SDS011;2937;48.562;8.022;2022-09-09T17:35:59;3.80;;;1.30;;
5821;SDS011;2937;48.562;8.022;2022-09-09T17:40:59;4.93;;;1.90;;
5821;SDS011;2937;48.562;8.022;2022-09-09T17:45:54;3.00;;;1.37;;
5821;SDS011;2937;48.562;8.022;2022-09-09T17:50:46;4.73;;;1.43;;
5821;SDS011;2937;48.562;8.022;2022-09-09T17:55:39;3.50;;;1.30;;
5821;SDS011;2937;48.562;8.022;2022-09-09T18:00:31;4.70;;;1.37;;
5821;SDS011;2937;48.562;8.022;2022-09-09T18:05:25;6.00;;;1.50;;
5821;SDS011;2937;48.562;8.022;2022-09-09T18:10:17;2.87;;;1.50;;
5821;SDS011;2937;48.562;8.022;2022-09-09T18:15:10;4.03;;;1.77;;
5821;SDS011;2937;48.562;8.022;2022-09-09T18:20:03;3.90;;;1.40;;
5821;SDS011;2937;48.562;8.022;2022-09-09T18:24:57;2.50;;;1.57;;
5821;SDS011;2937;48.562;8.022;2022-09-09T18:29:49;4.33;;;1.50;;
5821;SDS011;2937;48.562;8.022;2022-09-09T18:34:42;3.80;;;1.40;;
5821;SDS011;2937;48.562;8.022;2022-09-09T18:39:34;3.13;;;1.40;;
5821;SDS011;2937;48.562;8.022;2022-09-09T18:44:30;8.20;;;1.40;;
5821;SDS011;2937;48.562;8.022;2022-09-09T18:49:23;2.70;;;1.30;;
5821;SDS011;2937;48.562;8.022;2022-09-09T18:54:16;2.90;;;1.60;;
5821;SDS011;2937;48.562;8.022;2022-09-09T18:59:10;3.83;;;1.40;;
5821;SDS011;2937;48.562;8.022;2022-09-09T19:04:05;2.60;;;1.37;;
5821;SDS011;2937;48.562;8.022;2022-09-09T19:08:58;4.50;;;1.40;;
5821;SDS011;2937;48.562;8.022;2022-09-09T19:13:55;2.37;;;1.27;;
5821;SDS011;2937;48.562;8.022;2022-09-09T19:18:48;3.40;;;1.20;;
5821;SDS011;2937;48.562;8.022;2022-09-09T19:23:43;2.83;;;1.50;;
5821;SDS011;2937;48.562;8.022;2022-09-09T19:28:36;4.13;;;1.70;;
5821;SDS011;2937;48.562;8.022;2022-09-09T19:33:30;3.00;;;1.67;;
5821;SDS011;2937;48.562;8.022;2022-09-09T19:38:23;6.40;;;1.70;;
5821;SDS011;2937;48.562;8.022;2022-09-09T19:43:18;3.47;;;1.60;;
5821;SDS011;2937;48.562;8.022;2022-09-09T19:48:10;5.07;;;2.00;;
5821;SDS011;2937;48.562;8.022;2022-09-09T19:53:04;4.63;;;1.60;;
5821;SDS011;2937;48.562;8.022;2022-09-09T19:57:57;4.00;;;1.60;;
5821;SDS011;2937;48.562;8.022;2022-09-09T20:02:50;2.70;;;1.50;;
5821;SDS011;2937;48.562;8.022;2022-09-09T20:08:03;3.57;;;1.40;;
5821;SDS011;2937;48.562;8.022;2022-09-09T20:12:55;4.00;;;1.40;;
5821;SDS011;2937;48.562;8.022;2022-09-09T20:17:50;8.13;;;1.50;;
5821;SDS011;2937;48.562;8.022;2022-09-09T20:22:43;3.63;;;1.40;;
5821;SDS011;2937;48.562;8.022;2022-09-09T20:27:35;3.47;;;1.70;;
5821;SDS011;2937;48.562;8.022;2022-09-09T20:32:28;3.73;;;1.50;;
5821;SDS011;2937;48.562;8.022;2022-09-09T20:37:22;2.30;;;1.43;;
5821;SDS011;2937;48.562;8.022;2022-09-09T20:42:15;3.30;;;1.40;;
5821;SDS011;2937;48.562;8.022;2022-09-09T20:47:08;4.90;;;1.57;;
5821;SDS011;2937;48.562;8.022;2022-09-09T20:52:00;4.87;;;1.50;;
5821;SDS011;2937;48.562;8.022;2022-09-09T20:56:54;2.67;;;1.37;;
5821;SDS011;2937;48.562;8.022;2022-09-09T21:01:47;1.87;;;1.20;;
5821;SDS011;2937;48.562;8.022;2022-09-09T21:06:40;4.03;;;1.60;;
5821;SDS011;2937;48.562;8.022;2022-09-09T21:11:32;5.70;;;1.83;;
5821;SDS011;2937;48.562;8.022;2022-09-09T21:16:27;4.40;;;1.70;;
5821;SDS011;2937;48.562;8.022;2022-09-09T21:21:19;1.83;;;1.30;;
5821;SDS011;2937;48.562;8.022;2022-09-09T21:26:12;6.57;;;1.73;;
5821;SDS011;2937;48.562;8.022;2022-09-09T21:31:04;4.60;;;2.07;;
5821;SDS011;2937;48.562;8.022;2022-09-09T21:36:02;6.93;;;2.10;;
5821;SDS011;2937;48.562;8.022;2022-09-09T21:40:54;8.20;;;2.43;;
5821;SDS011;2937;48.562;8.022;2022-09-09T21:45:47;4.07;;;2.00;;
5821;SDS011;2937;48.562;8.022;2022-09-09T21:50:41;4.50;;;2.13;;
5821;SDS011;2937;48.562;8.022;2022-09-09T21:55:35;5.83;;;2.20;;
5821;SDS011;2937;48.562;8.022;2022-09-09T22:00:28;3.27;;;2.47;;
5821;SDS011;2937;48.562;8.022;2022-09-09T22:05:21;4.60;;;2.20;;
5821;SDS011;2937;48.562;8.022;2022-09-09T22:10:13;5.40;;;2.37;;
5821;SDS011;2937;48.562;8.022;2022-09-09T22:15:08;6.03;;;2.40;;
5821;SDS011;2937;48.562;8.022;2022-09-09T22:20:00;7.30;;;2.47;;
5821;SDS011;2937;48.562;8.022;2022-09-09T22:24:53;6.23;;;2.77;;
5821;SDS011;2937;48.562;8.022;2022-09-09T22:29:45;7.07;;;2.60;;
5821;SDS011;2937;48.562;8.022;2022-09-09T22:34:39;4.63;;;2.20;;
5821;SDS011;2937;48.562;8.022;2022-09-09T22:39:32;6.27;;;2.20;;
5821;SDS011;2937;48.562;8.022;2022-09-09T22:44:25;3.03;;;1.73;;
5821;SDS011;2937;48.562;8.022;2022-09-09T22:49:17;3.03;;;1.83;;
5821;SDS011;2937;48.562;8.022;2022-09-09T22:54:11;5.50;;;2.30;;
5821;SDS011;2937;48.562;8.022;2022-09-09T22:59:04;4.10;;;1.90;;
5821;SDS011;2937;48.562;8.022;2022-09-09T23:03:57;4.37;;;1.97;;
5821;SDS011;2937;48.562;8.022;2022-09-09T23:08:52;5.33;;;2.13;;
5821;SDS011;2937;48.562;8.022;2022-09-09T23:13:48;4.47;;;2.50;;
5821;SDS011;2937;48.562;8.022;2022-09-09T23:18:42;3.77;;;2.00;;
5821;SDS011;2937;48.562;8.022;2022-09-09T23:23:35;6.20;;;2.87;;
5821;SDS011;2937;48.562;8.022;2022-09-09T23:28:28;5.40;;;2.30;;
5821;SDS011;2937;48.562;8.022;2022-09-09T23:33:22;3.03;;;1.80;;
5821;SDS011;2937;48.562;8.022;2022-09-09T23:38:15;3.70;;;1.80;;
5821;SDS011;2937;48.562;8.022;2022-09-09T23:43:07;3.60;;;1.80;;
5821;SDS011;2937;48.562;8.022;2022-09-09T23:48:00;5.40;;;1.90;;
5821;SDS011;2937;48.562;8.022;2022-09-09T23:52:54;5.13;;;2.00;;
5821;SDS011;2937;48.562;8.022;2022-09-09T23:57:47;4.17;;;1.80;;
